Hovedside
METAR-TAF:

METAR-TAF

Lufthavner :

Jönköping lufthavn

Jönköping, Sverige

breddegrad: 57-46N, lengdegrad: 014-05E, høyde over havet: 226 m

Gjeldene værobservasjon

Denne rapporten ble laget for 17 minutter siden, klokken 13:50 UTC
Vind 16 kt fra Vest med vindkast opp mot 26 kt
Temperatur 6°C
Luftfuktighet 93%
Trykk 1017 hPa
Sikt 10 km eller mer
Brutte skyer i en høyde av 600 ft

METAR: ESGJ 231350Z 26016G26KT 9999 BKN006 06/05 Q1017

Tid: 15:07 (14:07 UTC)

Varsel

Denne rapporten ble laget for 41 minutter siden, klokken 13:26 UTC
Varsel gyldig fra 23. klokken 13 UTC til 23. klokken 21 UTC
Vind 14 kt fra Vest-sørvest med vindkast opp mot 24 kt
Sikt 10 km eller mer
Brutte skyer i en høyde av 400 ft
Midlertidig
fra 23. klokken 13 UTC til 23. klokken 21 UTC
Sikt: 2500 m
Brutte skyer i en høyde av 800 ft
dis

TAF: ESGJ 231326Z 2313/2321 24014G24KT 9999 BKN004 TEMPO 2313/2321 2500 BR BKN008

Værobservasjoner og værvarsel for over 4000 flyplasser (METAR- og TAF-rapporter).

Tilgjengelige stasjoner er representert av de røde og gule prikkene på kartet.

Hold musepekeren over prikken for å se navnet på stasjonen.

Klikk så for å se værobservasjoner og -varsler.

For å forandre kartet kan du klikke på den grønne knappen med svart kryss for å zoome inn, på den grønne knappen med strek for å zoome ut, eller på de grønne pilene for å se tilstøtende kart.


METAR-TAF: